Latest Weather Observations for Port Hedland

IDW60801

Issued at 2:33 pm WST Wednesday 26 July 2017 (issued every 30 minutes, with the page automatically refreshed every 10 minutes)

About weather observations | Map of weather stations | Latest weather observations for WA | Other Formats
Station Details ID: 004032 Name: PORT HEDLAND AIRPORT Lat: -20.37 Lon: 118.63 Height: 6.4 m
Data from the previous 72 hours. | See also: Recent months at Port Hedland
Date/Time
WST
Temp
°C
App
Temp
°C
Dew
Point
°C
Rel
Hum
%
Delta-T
°C
Wind Press
QNH
hPa
Press
MSL
hPa
Rain since
9am
mm
Dir  Spd
km/h
Gust
km/h
Spd
kts
Gust
kts
26/02:30pm 29.3 25.3 6.7 24 12.0 N 17 22 9 12 1015.2 - 0.0
26/02:00pm 29.9 25.5 4.5 20 13.1 N 17 24 9 13 1015.4 - 0.0
26/01:30pm 30.9 25.5 1.3 15 14.5 NNE 19 32 10 17 1015.8 - 0.0
26/01:00pm 32.6 26.2 -1.7 11 16.2 ESE 22 37 12 20 1016.1 - 0.0
26/12:30pm 32.4 26.5 -0.6 12 15.9 ESE 20 33 11 18 1016.7 - 0.0
26/12:00pm 30.7 26.6 4.4 19 13.6 NE 15 22 8 12 1017.3 1017.3 0.0
26/11:30am 31.5 25.8 0.8 14 15.0 NE 20 30 11 16 1017.6 - 0.0
26/11:00am 30.7 25.2 2.0 16 14.2 NE 20 26 11 14 1018.1 - 0.0
26/10:30am 30.3 23.9 0.8 15 14.3 E 24 28 13 15 1018.4 - 0.0
26/10:00am 29.3 24.0 1.7 17 13.5 ESE 19 24 10 13 1018.6 - 0.0
26/09:30am 27.7 22.2 2.0 19 12.5 ESE 20 28 11 15 1018.8 - 0.0
26/09:00am 26.5 21.4 3.1 22 11.5 ESE 19 24 10 13 1018.6 1018.6 0.2
26/08:30am 24.5 20.0 4.3 27 10.0 ESE 17 20 9 11 1018.5 - 0.2
26/08:00am 21.0 17.3 4.6 34 8.0 SE 13 15 7 8 1018.1 - 0.2
26/07:30am 16.1 13.0 5.4 49 5.1 SSE 11 13 6 7 1017.8 - 0.2
26/07:00am 13.8 10.1 4.7 54 4.2 SSE 13 15 7 8 1017.5 - 0.2
26/06:30am 14.2 10.6 4.8 53 4.4 S 13 15 7 8 1017.2 - 0.2
26/06:00am 14.9 11.2 4.6 50 4.8 S 13 15 7 8 1017.0 1017.0 0.2
26/05:30am 14.8 10.8 4.8 51 4.7 SSE 15 17 8 9 1017.0 - 0.2
26/05:00am 14.1 10.5 4.9 54 4.3 SSE 13 15 7 8 1016.8 - 0.2
26/04:30am 14.4 10.5 5.2 54 4.3 SSE 15 15 8 8 1016.6 - 0.2
26/04:00am 15.1 11.2 5.3 52 4.6 SSE 15 17 8 9 1016.5 - 0.2
26/03:30am 14.7 11.3 6.0 56 4.2 S 13 17 7 9 1016.5 - 0.2
26/03:00am 15.4 12.0 6.1 54 4.5 S 13 17 7 9 1016.4 1016.4 0.2
26/02:30am 15.2 12.0 7.0 58 4.0 S 13 17 7 9 1016.3 - 0.2
26/02:00am 15.7 12.3 7.5 58 4.1 S 15 19 8 10 1016.4 - 0.2
26/01:30am 15.8 12.9 8.1 60 3.9 S 13 13 7 7 1016.4 - 0.2
26/01:00am 15.6 12.8 8.4 62 3.6 S 13 17 7 9 1016.6 - 0.2
26/12:30am 15.6 13.2 8.8 64 3.5 S 11 15 6 8 1016.8 - 0.2
26/12:00am 15.4 13.0 8.6 64 3.4 S 11 15 6 8 1016.8 1016.8 0.2
 
Date/Time
WST
Temp
°C
App
Temp
°C
Dew
Point
°C
Rel
Hum
%
Delta-T
°C
Wind Press
QNH
hPa
Press
MSL
hPa
Rain since
9am
mm
Dir  Spd
km/h
Gust
km/h
Spd
kts
Gust
kts
25/11:30pm 16.1 13.8 9.1 63 3.6 S 11 13 6 7 1017.0 - 0.2
25/11:00pm 16.1 14.3 9.5 65 3.4 S 9 11 5 6 1017.1 - 0.2
25/10:30pm 16.7 14.6 9.6 63 3.7 S 11 13 6 7 1017.3 - 0.2
25/10:00pm 17.1 15.0 9.8 62 3.8 S 11 13 6 7 1017.5 - 0.2
25/09:30pm 17.4 15.7 9.8 61 4.0 S 9 11 5 6 1017.5 - 0.2
25/09:00pm 17.9 16.2 10.0 60 4.2 S 9 13 5 7 1017.3 1017.3 0.2
25/08:30pm 18.5 17.2 9.8 57 4.6 S 7 9 4 5 1017.1 - 0.2
25/08:00pm 19.7 18.2 10.7 56 4.9 S 9 13 5 7 1017.1 - 0.2
25/07:30pm 20.5 20.5 13.7 65 3.9 W 6 6 3 3 1016.7 - 0.2
25/07:00pm 20.6 20.6 13.6 64 4.0 NNW 6 7 3 4 1016.4 - 0.2
25/06:30pm 21.9 21.4 13.8 60 4.7 N 9 9 5 5 1015.9 - 0.2
25/06:00pm 22.1 20.3 12.1 53 5.6 N 13 15 7 8 1015.6 1015.6 0.2
25/05:30pm 25.1 21.8 9.4 37 8.6 N 17 24 9 13 1015.5 - 0.2
25/05:00pm 26.3 22.4 8.8 33 9.5 N 19 26 10 14 1015.5 - 0.2
25/04:30pm 26.8 22.6 9.6 34 9.5 N 22 26 12 14 1015.2 - 0.2
25/04:00pm 26.9 21.9 9.7 34 9.5 NNE 26 33 14 18 1015.2 - 0.2
25/03:30pm 27.5 21.6 8.9 31 10.2 NNE 30 35 16 19 1014.8 - 0.2
25/03:00pm 28.8 22.5 9.0 29 10.9 NNE 32 39 17 21 1014.6 1014.6 0.2
25/02:30pm 28.8 23.0 9.5 30 10.8 NNE 30 39 16 21 1014.6 - 0.2
25/02:00pm 29.2 23.4 9.3 29 11.1 NNE 30 39 16 21 1014.7 - 0.2
25/01:30pm 28.5 23.7 11.6 35 9.7 NNE 28 37 15 20 1014.9 - 0.2
25/01:00pm 29.3 24.0 9.9 30 10.9 NNE 28 33 15 18 1015.4 - 0.2
25/12:30pm 32.0 26.4 8.9 24 13.0 NE 28 39 15 21 1015.6 - 0.2
25/12:00pm 31.6 26.7 9.8 26 12.4 ENE 26 33 14 18 1016.2 1016.2 0.2
25/11:30am 31.1 26.6 9.9 27 12.0 E 24 32 13 17 1016.7 - 0.2
25/11:00am 30.2 26.4 11.2 31 11.0 E 22 30 12 16 1017.1 - 0.2
25/10:30am 29.4 26.1 11.5 33 10.3 ESE 20 26 11 14 1017.6 - 0.2
25/10:00am 28.4 25.8 11.9 36 9.5 ESE 17 24 9 13 1017.9 - 0.2
25/09:30am 27.6 25.0 12.0 38 9.0 ESE 17 20 9 11 1018.1 - 0.0
25/09:00am 25.3 23.7 12.9 46 7.2 SE 13 17 7 9 1017.9 1017.9 0.0
25/08:30am 22.4 22.0 14.0 59 4.9 SSE 9 15 5 8 1017.7 - 0.0
25/08:00am 19.5 19.0 13.9 70 3.2 SE 9 11 5 6 1017.4 - 0.0
25/07:30am 16.5 15.3 12.8 79 2.1 SE 11 15 6 8 1017.1 - 0.0
25/07:00am 14.9 13.2 12.6 86 1.3 SSE 13 15 7 8 1016.8 - 0.0
25/06:30am 15.3 13.8 13.0 86 1.3 S 13 15 7 8 1016.6 - 0.0
25/06:00am 15.5 14.1 13.5 88 1.1 S 13 17 7 9 1016.5 1016.5 0.0
25/05:30am 14.9 13.7 14.1 95 0.5 SSW 13 15 7 8 1016.4 - 0.0
25/05:00am 15.8 15.3 14.8 94 0.6 S 11 15 6 8 1016.4 - 0.0
25/04:30am 15.4 15.1 14.4 94 0.6 S 9 11 5 6 1016.4 - 0.0
25/04:00am 15.9 15.4 14.9 94 0.6 S 11 15 6 8 1016.3 - 0.0
25/03:30am 15.8 15.3 15.0 95 0.5 S 11 13 6 7 1016.4 - 0.0
25/03:00am 15.6 14.7 14.8 95 0.5 SSW 13 15 7 8 1016.5 1016.5 0.0
25/02:30am 16.4 15.7 15.4 94 0.6 S 13 17 7 9 1016.6 - 0.0
25/02:00am 17.1 16.3 16.1 94 0.6 S 15 17 8 9 1016.6 - 0.0
25/01:30am 16.9 16.5 16.1 95 0.5 SSW 13 15 7 8 1016.7 - 0.0
25/01:00am 16.8 16.4 16.2 96 0.4 SSW 13 17 7 9 1016.8 - 0.0
25/12:30am 17.3 17.5 16.7 96 0.4 SSW 11 13 6 7 1017.0 - 0.0
25/12:00am 17.1 17.2 16.5 96 0.4 SSW 11 11 6 6 1017.1 1017.1 0.0
 
Date/Time
WST
Temp
°C
App
Temp
°C
Dew
Point
°C
Rel
Hum
%
Delta-T
°C
Wind Press
QNH
hPa
Press
MSL
hPa
Rain since
9am
mm
Dir  Spd
km/h
Gust
km/h
Spd
kts
Gust
kts
24/11:30pm 16.8 17.5 16.2 96 0.4 SSW 7 9 4 5 1017.3 - 0.0
24/11:00pm 17.1 18.0 16.5 96 0.4 SSW 7 11 4 6 1017.2 - 0.0
24/10:30pm 17.7 18.5 17.4 98 0.2 WSW 9 11 5 6 1017.2 - 0.0
24/10:00pm 17.8 18.2 17.2 96 0.4 W 11 13 6 7 1017.1 - 0.0
24/09:30pm 17.8 18.0 16.8 94 0.6 WSW 11 11 6 6 1017.1 - 0.0
24/09:00pm 18.6 19.8 17.3 92 0.8 W 7 9 4 5 1017.0 1017.0 0.0
24/08:30pm 19.0 20.4 17.8 93 0.7 WNW 7 7 4 4 1016.8 - 0.0
24/08:00pm 19.4 20.2 18.1 92 0.8 WNW 11 11 6 6 1016.7 - 0.0
24/07:30pm 19.9 20.3 18.2 90 1.1 WNW 13 15 7 8 1016.5 - 0.0
24/07:00pm 20.1 20.4 18.0 88 1.3 WNW 13 15 7 8 1016.1 - 0.0
24/06:30pm 20.8 21.4 17.6 82 2.0 NW 11 11 6 6 1015.8 - 0.0
24/06:00pm 21.9 21.9 17.3 75 2.8 NW 13 15 7 8 1015.5 1015.5 0.0
24/05:30pm 23.5 23.3 17.5 69 3.7 NW 15 17 8 9 1015.3 - 0.0
24/05:00pm 25.4 23.9 15.4 54 6.0 NW 17 20 9 11 1015.1 - 0.0
24/04:30pm 26.7 25.5 16.0 52 6.6 NW 17 20 9 11 1014.8 - 0.0
24/04:00pm 27.5 26.1 15.5 48 7.3 NW 17 19 9 10 1014.7 - 0.0
24/03:30pm 27.7 26.6 15.4 47 7.5 NNW 15 19 8 10 1014.6 - 0.0
24/03:00pm 28.0 26.8 16.0 48 7.4 NW 17 20 9 11 1014.7 1014.7 0.0
24/02:30pm 27.9 26.9 15.5 46 7.6 NW 15 20 8 11 1014.8 - 0.0
24/02:00pm 27.9 27.2 15.5 46 7.6 NNW 13 17 7 9 1015.0 - 0.0
24/01:30pm 27.4 26.4 15.7 48 7.2 N 15 20 8 11 1015.3 - 0.0
24/01:00pm 27.7 26.7 15.7 48 7.4 N 15 19 8 10 1015.6 - 0.0
24/12:30pm 28.3 27.0 14.9 44 8.1 N 15 20 8 11 1015.8 - 0.0
24/12:00pm 28.6 27.0 11.6 34 9.8 W 11 15 6 8 1016.3 1016.3 0.0
24/11:30am 27.5 26.3 11.5 37 9.2 S 9 15 5 8 1016.8 - 0.0
24/11:00am 26.6 25.5 11.9 40 8.4 SSE 9 13 5 7 1017.2 - 0.0
24/10:30am 25.9 25.0 12.7 44 7.7 SSW 9 17 5 9 1017.5 - 0.0
24/10:00am 25.2 23.7 13.1 47 7.0 SSW 13 19 7 10 1017.6 - 0.0
24/09:30am 24.2 21.7 13.4 51 6.3 SSW 19 22 10 12 1017.7 - 0.0
24/09:00am 23.0 20.6 13.8 56 5.4 SSW 19 26 10 14 1017.8 1017.8 0.0
24/08:30am 21.4 20.2 15.0 67 3.8 SSW 15 20 8 11 1017.5 - 0.0
24/08:00am 18.7 18.0 14.4 76 2.5 S 11 13 6 7 1017.4 - 0.0
24/07:30am 16.2 15.0 12.9 81 1.8 S 11 15 6 8 1017.0 - 0.0
24/07:00am 14.5 13.2 12.5 88 1.1 S 11 13 6 7 1016.8 - 0.0
24/06:30am 15.0 13.8 12.7 86 1.3 S 11 15 6 8 1016.5 - 0.0
24/06:00am 15.0 13.8 12.7 86 1.3 S 11 15 6 8 1016.3 1016.3 0.0
24/05:30am 15.2 14.5 13.2 88 1.1 S 9 11 5 6 1015.8 - 0.0
24/05:00am 15.5 14.9 13.5 88 1.1 S 9 11 5 6 1016.0 - 0.0
24/04:30am 16.4 15.2 13.9 85 1.4 S 13 15 7 8 1015.9 - 0.0
24/04:00am 16.0 14.5 14.2 89 1.0 SSW 15 20 8 11 1015.8 - 0.0
24/03:30am 16.0 15.3 14.4 90 0.9 S 11 15 6 8 1016.0 - 0.0
24/03:00am 16.1 15.8 14.5 90 0.9 S 9 11 5 6 1016.2 1016.2 0.0
24/02:30am 16.1 15.9 14.6 91 0.9 S 9 11 5 6 1016.4 - 0.0
24/02:00am 16.6 17.1 15.6 94 0.6 S 7 9 4 5 1016.5 - 0.0
24/01:30am 16.8 16.9 15.5 92 0.8 S 9 11 5 6 1016.5 - 0.0
24/01:00am 17.4 18.4 16.3 93 0.7 NW 6 6 3 3 1016.6 - 0.0
24/12:30am 17.5 19.7 16.4 93 0.7 CALM 0 0 0 0 1016.7 - 0.0
24/12:00am 17.8 20.0 16.5 92 0.8 CALM 0 0 0 0 1016.7 1016.7 0.0
 
Date/Time
WST
Temp
°C
App
Temp
°C
Dew
Point
°C
Rel
Hum
%
Delta-T
°C
Wind Press
QNH
hPa
Press
MSL
hPa
Rain since
9am
mm
Dir  Spd
km/h
Gust
km/h
Spd
kts
Gust
kts
23/11:30pm 17.6 19.6 16.1 91 0.9 CALM 0 0 0 0 1016.8 - 0.0
23/11:00pm 18.0 20.2 16.5 91 0.9 CALM 0 0 0 0 1016.8 - 0.0
23/10:30pm 19.0 21.7 17.8 93 0.7 CALM 0 0 0 0 1016.8 - 0.0
23/10:00pm 19.0 20.9 17.7 92 0.8 NW 4 6 2 3 1017.0 - 0.0
23/09:30pm 19.0 20.8 17.5 91 0.9 NW 4 6 2 3 1016.8 - 0.0
23/09:00pm 19.0 20.6 17.0 88 1.2 NW 4 6 2 3 1016.6 1016.6 0.0
23/08:30pm 19.5 20.7 17.3 87 1.3 NW 7 9 4 5 1016.5 - 0.0
23/08:00pm 19.9 21.0 17.1 84 1.7 NW 7 9 4 5 1016.3 - 0.0
23/07:30pm 20.1 21.2 17.1 83 1.8 WNW 7 7 4 4 1016.0 - 0.0
23/07:00pm 20.3 20.9 16.7 80 2.2 NW 9 9 5 5 1015.7 - 0.0
23/06:30pm 20.7 21.3 16.9 79 2.3 NW 9 11 5 6 1015.3 - 0.0
23/06:00pm 21.3 21.9 16.7 75 2.8 NNW 9 11 5 6 1015.0 1015.0 0.0
23/05:30pm 22.6 22.4 16.6 69 3.7 NW 13 15 7 8 1014.7 - 0.0
23/05:00pm 23.6 23.6 17.3 67 3.9 NNW 13 17 7 9 1014.5 - 0.0
23/04:30pm 23.7 23.7 17.2 67 4.0 NNW 13 17 7 9 1014.3 - 0.0
23/04:00pm 24.0 23.8 17.5 67 4.0 NNW 15 19 8 10 1014.3 - 0.0
23/03:30pm 24.7 24.2 17.7 65 4.4 NNW 17 22 9 12 1014.1 - 0.0
23/03:00pm 24.8 24.5 17.3 63 4.7 NNW 15 20 8 11 1014.3 1014.3 0.0

Other Formats:

Comma delimited format used in spreadsheet applications
http://www.bom.gov.au/fwo/IDW60801/IDW60801.94312.axf

JavaScript Object Notation format (JSON) in row-major order
http://www.bom.gov.au/fwo/IDW60801/IDW60801.94312.json